createdAt,value
2023-06-19T00:00:02.265Z,7.30
2023-06-19T00:02:40.051Z,7.37
2023-06-19T00:05:08.766Z,7.50
2023-06-19T00:07:38.345Z,7.50
2023-06-19T00:10:07.120Z,7.33
2023-06-19T00:12:35.131Z,7.20
2023-06-19T00:15:04.079Z,6.97
2023-06-19T00:17:32.326Z,7.40
2023-06-19T00:20:00.385Z,7.37
2023-06-19T00:22:28.524Z,7.97
2023-06-19T00:24:57.910Z,7.40
2023-06-19T00:27:27.521Z,6.73
2023-06-19T00:29:56.696Z,7.00
2023-06-19T00:32:24.781Z,7.80
2023-06-19T00:34:52.897Z,7.53
2023-06-19T00:37:20.932Z,7.80
2023-06-19T00:39:48.971Z,8.10
2023-06-19T00:42:18.410Z,7.60
2023-06-19T00:44:46.674Z,8.03
2023-06-19T00:47:14.805Z,7.30
2023-06-19T00:49:42.791Z,6.80
2023-06-19T00:52:10.841Z,6.57
2023-06-19T00:54:38.982Z,7.67
2023-06-19T00:57:07.488Z,6.90
2023-06-19T00:59:36.902Z,6.50
2023-06-19T01:02:05.465Z,6.07
2023-06-19T01:04:33.598Z,6.67
2023-06-19T01:07:05.077Z,6.93
2023-06-19T01:09:36.093Z,6.87
2023-06-19T01:12:09.300Z,6.90
2023-06-19T01:14:41.657Z,7.07
2023-06-19T01:17:10.255Z,7.30
2023-06-19T01:19:38.506Z,7.20
2023-06-19T01:22:08.210Z,7.10
2023-06-19T01:24:37.535Z,6.67
2023-06-19T01:27:05.903Z,7.20
2023-06-19T01:29:33.945Z,7.43
2023-06-19T01:32:05.376Z,6.93
2023-06-19T01:34:35.865Z,7.80
2023-06-19T01:37:06.749Z,7.40
2023-06-19T01:39:37.230Z,7.10
2023-06-19T01:42:06.508Z,7.83
2023-06-19T01:44:34.736Z,7.57
2023-06-19T01:47:09.296Z,7.73
2023-06-19T01:49:37.373Z,7.60
2023-06-19T01:52:05.896Z,7.17
2023-06-19T01:54:33.819Z,7.77
2023-06-19T01:57:03.545Z,7.67
2023-06-19T01:59:32.333Z,7.50
2023-06-19T02:02:00.407Z,6.40
2023-06-19T02:04:30.831Z,6.63
2023-06-19T02:06:58.883Z,7.60
2023-06-19T02:09:26.941Z,6.70
2023-06-19T02:11:55.562Z,7.37
2023-06-19T02:14:25.376Z,7.03
2023-06-19T02:16:53.435Z,7.30
2023-06-19T02:19:21.450Z,7.57
2023-06-19T02:21:50.903Z,6.83
2023-06-19T02:24:19.114Z,7.43
2023-06-19T02:26:47.195Z,7.10
2023-06-19T02:29:15.378Z,6.87
2023-06-19T02:31:44.797Z,7.47
2023-06-19T02:34:12.806Z,7.20
2023-06-19T02:36:41.308Z,8.07
2023-06-19T02:39:10.724Z,8.40
2023-06-19T02:41:39.307Z,8.73
2023-06-19T02:44:07.281Z,9.83
2023-06-19T02:46:35.272Z,9.67
2023-06-19T02:49:04.896Z,9.23
2023-06-19T02:51:33.093Z,10.17
2023-06-19T02:54:01.162Z,9.67
2023-06-19T02:56:29.912Z,10.77
2023-06-19T02:58:57.923Z,10.80
2023-06-19T03:01:26.223Z,10.40
2023-06-19T03:03:54.385Z,11.50
2023-06-19T03:06:23.873Z,10.47
2023-06-19T03:08:52.156Z,8.40
2023-06-19T03:11:20.522Z,9.17
2023-06-19T03:13:49.633Z,9.10
2023-06-19T03:16:17.853Z,9.10
2023-06-19T03:18:46.821Z,9.00
2023-06-19T03:21:18.186Z,8.40
2023-06-19T03:23:49.215Z,8.80
2023-06-19T03:26:17.893Z,8.13
2023-06-19T03:28:45.896Z,8.47
2023-06-19T03:31:14.198Z,8.70
2023-06-19T03:33:42.133Z,9.63
2023-06-19T03:36:11.812Z,9.27
2023-06-19T03:38:51.346Z,9.83
2023-06-19T03:41:23.081Z,11.47
2023-06-19T03:43:51.139Z,11.60
2023-06-19T03:46:19.777Z,11.40
2023-06-19T03:48:48.389Z,11.30
2023-06-19T03:51:16.729Z,10.80
2023-06-19T03:53:44.807Z,11.20
2023-06-19T03:56:14.171Z,12.27
2023-06-19T03:58:44.478Z,13.10
2023-06-19T04:01:13.842Z,11.20
2023-06-19T04:03:42.216Z,12.03
2023-06-19T04:06:10.594Z,9.73
2023-06-19T04:08:41.143Z,12.53
2023-06-19T04:11:12.696Z,12.77
2023-06-19T04:13:42.709Z,11.37
2023-06-19T04:16:10.892Z,11.43
2023-06-19T04:18:38.970Z,10.57
2023-06-19T04:21:07.033Z,10.30
2023-06-19T04:23:35.157Z,10.20
2023-06-19T04:26:03.269Z,9.70
2023-06-19T04:28:31.396Z,10.20
2023-06-19T04:31:02.142Z,10.57
2023-06-19T04:33:30.588Z,8.87
2023-06-19T04:35:59.001Z,9.20
2023-06-19T04:38:27.176Z,9.00
2023-06-19T04:40:55.616Z,9.63
2023-06-19T04:43:25.782Z,9.53
2023-06-19T04:45:54.721Z,8.63
2023-06-19T04:48:27.319Z,9.30
2023-06-19T04:50:57.332Z,8.87
2023-06-19T04:53:25.672Z,9.23
2023-06-19T04:55:55.685Z,8.70
2023-06-19T04:58:24.035Z,8.43
2023-06-19T05:00:53.546Z,8.20
2023-06-19T05:03:22.992Z,8.73
2023-06-19T05:05:52.837Z,7.10
2023-06-19T05:08:20.850Z,8.33
2023-06-19T05:10:48.868Z,9.50
2023-06-19T05:13:17.653Z,7.70
2023-06-19T05:15:45.720Z,7.97
2023-06-19T05:18:13.784Z,8.53
2023-06-19T05:20:41.851Z,8.93
2023-06-19T05:23:11.251Z,7.73
2023-06-19T05:25:39.309Z,7.60
2023-06-19T05:28:07.265Z,7.57
2023-06-19T05:30:36.061Z,8.53
2023-06-19T05:33:04.123Z,7.83
2023-06-19T05:35:33.005Z,9.73
2023-06-19T05:38:01.024Z,7.47
2023-06-19T05:40:30.817Z,8.23
2023-06-19T05:42:59.265Z,7.70
2023-06-19T05:45:27.374Z,7.50
2023-06-19T05:47:55.692Z,7.80
2023-06-19T05:50:24.577Z,8.03
2023-06-19T05:52:52.994Z,7.23
2023-06-19T05:55:21.223Z,7.60
2023-06-19T05:57:50.618Z,7.53
2023-06-19T06:00:19.133Z,7.37
2023-06-19T06:02:47.233Z,7.97
2023-06-19T06:05:15.386Z,7.10
2023-06-19T06:07:43.499Z,8.30
2023-06-19T06:10:11.968Z,9.60
2023-06-19T06:12:40.114Z,7.67
2023-06-19T06:15:10.219Z,7.27
2023-06-19T06:17:38.295Z,7.30
2023-06-19T06:20:11.904Z,7.53
2023-06-19T06:22:40.164Z,7.70
2023-06-19T06:25:09.821Z,7.40
2023-06-19T06:27:39.470Z,6.70
2023-06-19T06:30:09.721Z,6.83
2023-06-19T06:32:37.737Z,7.50
2023-06-19T06:35:06.312Z,6.83
2023-06-19T06:37:34.476Z,6.93
2023-06-19T06:40:02.582Z,7.20
2023-06-19T06:42:30.644Z,6.87
2023-06-19T06:44:58.821Z,7.57
2023-06-19T06:47:28.278Z,7.60
2023-06-19T06:49:56.388Z,7.30
2023-06-19T06:52:25.223Z,6.80
2023-06-19T06:54:53.366Z,7.07
2023-06-19T06:57:21.445Z,7.97
2023-06-19T06:59:49.382Z,7.37
2023-06-19T07:02:17.569Z,6.77
2023-06-19T07:04:47.051Z,6.60
2023-06-19T07:07:15.205Z,6.77
2023-06-19T07:09:43.181Z,7.10
2023-06-19T07:12:11.322Z,6.47
2023-06-19T07:14:39.399Z,6.07
2023-06-19T07:17:08.550Z,7.57
2023-06-19T07:19:36.786Z,6.40
2023-06-19T07:22:06.678Z,6.07
2023-06-19T07:24:34.720Z,7.07
2023-06-19T07:27:02.775Z,6.90
2023-06-19T07:29:30.839Z,6.20
2023-06-19T07:31:58.864Z,6.90
2023-06-19T07:34:26.968Z,6.53
2023-06-19T07:36:55.161Z,5.83
2023-06-19T07:39:24.667Z,6.43
2023-06-19T07:41:52.709Z,6.20
2023-06-19T07:44:22.169Z,6.67
2023-06-19T07:46:50.175Z,6.07
2023-06-19T07:49:18.180Z,5.87
2023-06-19T07:51:46.238Z,6.50
2023-06-19T07:54:14.271Z,6.70
2023-06-19T07:56:43.765Z,6.50
2023-06-19T07:59:12.259Z,6.47
2023-06-19T08:01:40.196Z,6.50
2023-06-19T08:04:08.320Z,6.50
2023-06-19T08:06:36.383Z,5.77
2023-06-19T08:09:04.457Z,6.63
2023-06-19T08:11:32.494Z,6.20
2023-06-19T08:14:01.912Z,6.00
2023-06-19T08:16:29.988Z,6.50
2023-06-19T08:18:58.019Z,6.20
2023-06-19T08:21:26.674Z,7.23
2023-06-19T08:23:54.886Z,7.10
2023-06-19T08:26:22.899Z,5.60
2023-06-19T08:28:50.965Z,6.03
2023-06-19T08:31:20.382Z,6.47
2023-06-19T08:33:50.493Z,6.87
2023-06-19T08:36:20.164Z,5.80
2023-06-19T08:38:50.469Z,6.10
2023-06-19T08:41:20.053Z,5.60
2023-06-19T08:43:48.516Z,6.07
2023-06-19T08:46:18.812Z,5.83
2023-06-19T08:48:49.965Z,6.57
2023-06-19T08:51:18.070Z,6.03
2023-06-19T08:53:46.929Z,5.47
2023-06-19T08:56:14.942Z,4.70
2023-06-19T08:58:42.990Z,6.40
2023-06-19T09:01:11.153Z,5.50
2023-06-19T09:03:39.320Z,5.77
2023-06-19T09:06:10.321Z,5.97
2023-06-19T09:08:39.796Z,5.90
2023-06-19T09:11:10.848Z,5.97
2023-06-19T09:13:39.346Z,5.70
2023-06-19T09:16:07.900Z,4.90
2023-06-19T09:18:44.628Z,5.67
2023-06-19T09:21:19.578Z,5.80
2023-06-19T09:23:48.089Z,5.00
2023-06-19T09:26:19.007Z,5.30
2023-06-19T09:28:47.806Z,5.33
2023-06-19T09:31:15.933Z,5.40
2023-06-19T09:33:45.309Z,5.70
2023-06-19T09:36:13.470Z,6.40
2023-06-19T09:38:42.858Z,5.30
2023-06-19T09:41:14.249Z,5.60
2023-06-19T09:43:44.363Z,5.60
2023-06-19T09:46:14.270Z,5.40
2023-06-19T09:48:43.902Z,5.90
2023-06-19T09:51:14.471Z,5.43
2023-06-19T09:53:45.509Z,6.10
2023-06-19T09:56:14.381Z,5.30
2023-06-19T09:58:42.909Z,6.03
2023-06-19T10:01:11.180Z,5.00
2023-06-19T10:03:41.499Z,5.07
2023-06-19T10:06:15.245Z,5.33
2023-06-19T10:08:45.094Z,5.17
2023-06-19T10:11:13.192Z,5.57
2023-06-19T10:13:42.830Z,5.93
2023-06-19T10:16:21.507Z,5.53
2023-06-19T10:18:49.992Z,5.47
2023-06-19T10:21:18.436Z,5.87
2023-06-19T10:23:55.142Z,6.20
2023-06-19T10:26:31.355Z,5.67
2023-06-19T10:28:59.985Z,5.90
2023-06-19T10:31:29.854Z,5.50
2023-06-19T10:33:58.826Z,6.00
2023-06-19T10:36:27.800Z,5.70
2023-06-19T10:38:57.268Z,6.27
2023-06-19T10:41:27.034Z,5.50
2023-06-19T10:43:55.557Z,5.10
2023-06-19T10:46:24.061Z,5.93
2023-06-19T10:48:52.601Z,5.77
2023-06-19T10:51:20.868Z,5.77
2023-06-19T10:53:48.929Z,5.87
2023-06-19T10:56:22.284Z,6.40
2023-06-19T10:58:50.421Z,6.13
2023-06-19T11:01:18.465Z,5.37
2023-06-19T11:03:47.662Z,6.60
2023-06-19T11:06:21.603Z,5.73
2023-06-19T11:08:53.080Z,5.70
2023-06-19T11:11:22.853Z,6.07
2023-06-19T11:13:51.004Z,6.40
2023-06-19T11:16:19.683Z,5.90
2023-06-19T11:18:47.722Z,6.87
2023-06-19T11:21:16.912Z,6.40
2023-06-19T11:23:49.717Z,6.27
2023-06-19T11:26:17.951Z,5.40
2023-06-19T11:28:51.491Z,6.83
2023-06-19T11:31:19.646Z,6.40
2023-06-19T11:33:57.692Z,6.77
2023-06-19T11:36:25.849Z,7.23
2023-06-19T11:38:54.395Z,6.90
2023-06-19T11:41:29.525Z,7.10
2023-06-19T11:44:03.308Z,7.80
2023-06-19T11:46:31.996Z,6.00
2023-06-19T11:49:09.706Z,6.70
2023-06-19T11:51:37.885Z,6.90
2023-06-19T11:54:07.862Z,7.10
2023-06-19T11:56:36.368Z,7.07
2023-06-19T11:59:06.119Z,6.80
2023-06-19T12:01:34.502Z,6.87
2023-06-19T12:04:03.086Z,6.70
2023-06-19T12:06:31.996Z,6.70
2023-06-19T12:09:00.170Z,7.50
2023-06-19T12:11:28.151Z,6.27
2023-06-19T12:13:57.199Z,5.63
2023-06-19T12:16:27.004Z,6.93
2023-06-19T12:18:55.285Z,6.57
2023-06-19T12:21:35.717Z,6.47
2023-06-19T12:24:07.574Z,6.60
2023-06-19T12:26:38.297Z,6.47
2023-06-19T12:29:06.883Z,6.60
2023-06-19T12:31:37.208Z,5.87
2023-06-19T12:34:16.936Z,6.97
2023-06-19T12:36:53.389Z,5.80
2023-06-19T12:39:21.329Z,6.27
2023-06-19T12:41:49.333Z,6.30
2023-06-19T12:44:17.923Z,6.47
2023-06-19T12:46:47.449Z,5.77
2023-06-19T12:49:15.542Z,6.30
2023-06-19T12:51:43.526Z,5.93
2023-06-19T12:54:11.567Z,7.03
2023-06-19T12:56:39.605Z,6.40
2023-06-19T12:59:07.534Z,6.03
2023-06-19T13:01:35.668Z,6.50
2023-06-19T13:04:05.357Z,7.30
2023-06-19T13:06:33.598Z,6.00
2023-06-19T13:09:03.842Z,5.93
2023-06-19T13:11:35.473Z,5.90
2023-06-19T13:14:03.739Z,5.67
2023-06-19T13:16:45.572Z,6.03
2023-06-19T13:19:16.752Z,5.80
2023-06-19T13:21:44.840Z,6.30
2023-06-19T13:24:13.194Z,5.90
2023-06-19T13:26:41.573Z,6.23
2023-06-19T13:29:09.619Z,6.50
2023-06-19T13:31:37.767Z,6.17
2023-06-19T13:34:05.875Z,6.23
2023-06-19T13:36:35.435Z,5.40
2023-06-19T13:39:03.492Z,6.20
2023-06-19T13:41:33.536Z,5.60
2023-06-19T13:44:01.963Z,6.20
2023-06-19T13:46:30.485Z,5.67
2023-06-19T13:48:58.671Z,5.50
2023-06-19T13:51:26.848Z,5.20
2023-06-19T13:53:56.567Z,6.30
2023-06-19T13:56:25.295Z,6.53
2023-06-19T13:58:53.436Z,5.80
2023-06-19T14:01:21.821Z,5.80
2023-06-19T14:03:49.977Z,5.77
2023-06-19T14:06:18.063Z,5.73
2023-06-19T14:08:46.286Z,6.17
2023-06-19T14:11:15.825Z,6.27
2023-06-19T14:13:43.993Z,5.60
2023-06-19T14:16:12.127Z,5.60
2023-06-19T14:18:40.225Z,5.87
2023-06-19T14:21:08.231Z,5.43
2023-06-19T14:23:41.341Z,6.10
2023-06-19T14:26:09.433Z,5.97
2023-06-19T14:28:40.420Z,6.60
2023-06-19T14:31:08.776Z,6.23
2023-06-19T14:33:38.131Z,6.13
2023-06-19T14:36:06.458Z,5.37
2023-06-19T14:38:35.294Z,5.57
2023-06-19T14:41:03.557Z,6.37
2023-06-19T14:43:34.071Z,6.63
2023-06-19T14:46:05.486Z,6.43
2023-06-19T14:48:33.681Z,7.17
2023-06-19T14:51:02.895Z,6.10
2023-06-19T14:53:31.076Z,5.67
2023-06-19T14:55:59.136Z,6.83
2023-06-19T14:58:29.804Z,6.83
2023-06-19T15:00:59.117Z,7.00
2023-06-19T15:03:28.892Z,6.10
2023-06-19T15:05:56.924Z,6.97
2023-06-19T15:08:25.380Z,7.00
2023-06-19T15:10:53.768Z,7.77
2023-06-19T15:13:21.871Z,6.70
2023-06-19T15:15:51.973Z,6.67
2023-06-19T15:18:20.244Z,6.63
2023-06-19T15:20:49.856Z,7.40
2023-06-19T15:23:17.906Z,6.63
2023-06-19T15:25:46.045Z,6.63
2023-06-19T15:28:14.092Z,5.93
2023-06-19T15:30:42.098Z,6.83
2023-06-19T15:33:10.184Z,6.70
2023-06-19T15:35:38.349Z,6.90
2023-06-19T15:38:07.851Z,6.70
2023-06-19T15:40:35.978Z,7.10
2023-06-19T15:43:04.112Z,6.50
2023-06-19T15:45:32.188Z,6.93
2023-06-19T15:48:00.308Z,6.60
2023-06-19T15:50:28.429Z,6.40
2023-06-19T15:52:56.523Z,7.30
2023-06-19T15:55:27.703Z,7.10
2023-06-19T15:57:55.924Z,7.60
2023-06-19T16:00:24.244Z,7.73
2023-06-19T16:02:52.668Z,7.70
2023-06-19T16:05:20.874Z,7.50
2023-06-19T16:07:48.987Z,7.70
2023-06-19T16:10:17.232Z,6.90
2023-06-19T16:12:46.871Z,7.33
2023-06-19T16:15:15.863Z,7.00
2023-06-19T16:17:45.160Z,6.80
2023-06-19T16:20:13.580Z,7.17
2023-06-19T16:22:41.630Z,6.00
2023-06-19T16:25:11.984Z,6.97
2023-06-19T16:27:40.130Z,7.27
2023-06-19T16:30:10.350Z,8.70
2023-06-19T16:32:38.454Z,7.00
2023-06-19T16:35:07.232Z,7.33
2023-06-19T16:37:35.568Z,7.93
2023-06-19T16:40:06.254Z,7.87
2023-06-19T16:42:34.345Z,7.47
2023-06-19T16:45:02.315Z,7.40
2023-06-19T16:47:31.869Z,6.97
2023-06-19T16:49:59.906Z,6.60
2023-06-19T16:52:28.508Z,7.20
2023-06-19T16:54:56.741Z,7.33
2023-06-19T16:57:27.284Z,8.00
2023-06-19T16:59:55.386Z,6.47
2023-06-19T17:02:23.524Z,7.90
2023-06-19T17:04:53.052Z,8.13
2023-06-19T17:07:21.219Z,8.57
2023-06-19T17:09:49.293Z,7.93
2023-06-19T17:12:17.367Z,8.07
2023-06-19T17:14:45.378Z,8.73
2023-06-19T17:17:13.488Z,8.47
2023-06-19T17:19:41.669Z,8.30
2023-06-19T17:22:11.104Z,9.87
2023-06-19T17:24:40.629Z,8.47
2023-06-19T17:27:08.720Z,9.27
2023-06-19T17:29:36.824Z,8.77
2023-06-19T17:32:05.042Z,7.13
2023-06-19T17:34:33.298Z,8.23
2023-06-19T17:37:01.380Z,8.90
2023-06-19T17:39:30.968Z,8.13
2023-06-19T17:41:59.517Z,9.20
2023-06-19T17:44:30.550Z,8.83
2023-06-19T17:46:59.504Z,8.70
2023-06-19T17:49:27.564Z,8.63
2023-06-19T17:51:55.579Z,8.00
2023-06-19T17:54:23.744Z,10.03
2023-06-19T17:56:53.205Z,8.57
2023-06-19T17:59:21.196Z,9.30
2023-06-19T18:01:50.881Z,9.50
2023-06-19T18:04:19.093Z,10.70
2023-06-19T18:06:47.235Z,9.20
2023-06-19T18:09:15.260Z,8.70
2023-06-19T18:11:43.410Z,9.37
2023-06-19T18:14:12.908Z,9.80
2023-06-19T18:16:41.228Z,10.47
2023-06-19T18:19:09.244Z,9.80
2023-06-19T18:21:37.308Z,9.70
2023-06-19T18:24:05.700Z,10.40
2023-06-19T18:26:33.781Z,11.50
2023-06-19T18:29:01.877Z,9.67
2023-06-19T18:31:31.264Z,10.37
2023-06-19T18:33:59.244Z,11.30
2023-06-19T18:36:28.100Z,10.63
2023-06-19T18:38:56.114Z,11.13
2023-06-19T18:41:24.366Z,11.47
2023-06-19T18:43:52.399Z,10.60
2023-06-19T18:46:20.797Z,10.77
2023-06-19T18:48:50.218Z,10.10
2023-06-19T18:51:18.247Z,10.80
2023-06-19T18:53:46.244Z,11.30
2023-06-19T18:56:15.954Z,10.40
2023-06-19T18:58:44.026Z,12.20
2023-06-19T19:01:12.078Z,10.57
2023-06-19T19:03:40.268Z,11.03
2023-06-19T19:06:09.725Z,11.50
2023-06-19T19:08:37.805Z,11.13
2023-06-19T19:11:05.993Z,12.10
2023-06-19T19:13:34.190Z,10.67
2023-06-19T19:16:02.160Z,11.33
2023-06-19T19:18:30.437Z,11.90
2023-06-19T19:20:58.397Z,11.13
2023-06-19T19:23:27.870Z,11.20
2023-06-19T19:25:56.018Z,12.20
2023-06-19T19:28:24.107Z,11.67
2023-06-19T19:30:52.117Z,12.90
2023-06-19T19:33:20.284Z,11.90
2023-06-19T19:35:48.469Z,12.17
2023-06-19T19:38:18.613Z,11.93
2023-06-19T19:40:48.318Z,11.30
2023-06-19T19:43:17.720Z,11.20
2023-06-19T19:45:45.872Z,12.50
2023-06-19T19:48:14.041Z,12.30
2023-06-19T19:50:42.031Z,12.37
2023-06-19T19:53:10.094Z,12.00
2023-06-19T19:55:38.106Z,12.60
2023-06-19T19:58:07.492Z,12.80
2023-06-19T20:00:35.492Z,13.60
2023-06-19T20:03:03.702Z,14.70
2023-06-19T20:05:31.978Z,14.77
2023-06-19T20:08:00.065Z,12.50
2023-06-19T20:10:28.395Z,13.10
2023-06-19T20:12:56.487Z,13.50
2023-06-19T20:15:26.432Z,13.03
2023-06-19T20:17:54.554Z,14.30
2023-06-19T20:20:22.711Z,13.33
2023-06-19T20:22:51.000Z,12.87
2023-06-19T20:25:19.165Z,13.30
2023-06-19T20:27:58.887Z,13.33
2023-06-19T20:30:36.528Z,14.27
2023-06-19T20:33:04.736Z,14.30
2023-06-19T20:35:32.787Z,14.03
2023-06-19T20:38:00.893Z,13.60
2023-06-19T20:40:30.694Z,13.13
2023-06-19T20:42:58.694Z,14.53
2023-06-19T20:45:27.552Z,14.43
2023-06-19T20:47:57.485Z,13.43
2023-06-19T20:50:25.749Z,15.63
2023-06-19T20:52:54.012Z,17.30
2023-06-19T20:55:22.095Z,16.77
2023-06-19T20:57:50.165Z,18.60
2023-06-19T21:00:18.690Z,16.10
2023-06-19T21:02:47.570Z,14.43
2023-06-19T21:05:17.652Z,15.33
2023-06-19T21:07:45.887Z,13.70
2023-06-19T21:10:14.010Z,15.07
2023-06-19T21:12:42.337Z,14.60
2023-06-19T21:15:10.934Z,12.80
2023-06-19T21:17:39.236Z,12.93
2023-06-19T21:20:21.904Z,13.70
2023-06-19T21:22:52.561Z,13.23
2023-06-19T21:25:20.620Z,12.67
2023-06-19T21:27:48.655Z,14.50
2023-06-19T21:30:16.908Z,13.33
2023-06-19T21:35:12.878Z,13.70
2023-06-19T21:37:40.885Z,14.90
2023-06-19T21:40:10.649Z,17.23
2023-06-19T21:42:38.728Z,15.33
2023-06-19T21:45:07.422Z,15.83
2023-06-19T21:47:35.429Z,15.03
2023-06-19T21:50:03.490Z,14.23
2023-06-19T21:52:31.451Z,14.57
2023-06-19T21:54:59.407Z,15.13
2023-06-19T21:57:28.870Z,13.67
2023-06-19T21:59:56.920Z,14.00
2023-06-19T22:02:25.066Z,13.90
2023-06-19T22:04:53.244Z,14.00
2023-06-19T22:07:21.285Z,13.30
2023-06-19T22:09:49.619Z,13.30
2023-06-19T22:12:17.833Z,12.87
2023-06-19T22:14:47.334Z,12.97
2023-06-19T22:17:15.435Z,13.83
2023-06-19T22:19:43.460Z,14.00
2023-06-19T22:22:11.526Z,13.93
2023-06-19T22:24:39.543Z,14.20
2023-06-19T22:27:08.117Z,12.53
2023-06-19T22:29:36.425Z,13.07
2023-06-19T22:32:06.098Z,12.90
2023-06-19T22:34:34.618Z,12.53
2023-06-19T22:37:02.674Z,12.90
2023-06-19T22:39:30.743Z,12.13
2023-06-19T22:41:59.280Z,11.23
2023-06-19T22:44:27.355Z,11.17
2023-06-19T22:46:55.297Z,9.87
2023-06-19T22:49:26.471Z,11.57
2023-06-19T22:51:54.480Z,10.03
2023-06-19T22:54:22.435Z,12.70
2023-06-19T22:56:50.471Z,11.17
2023-06-19T22:59:18.559Z,11.40
2023-06-19T23:01:46.614Z,11.83
2023-06-19T23:04:14.697Z,11.10
2023-06-19T23:06:44.140Z,12.10
2023-06-19T23:09:12.354Z,10.70
2023-06-19T23:11:40.515Z,10.83
2023-06-19T23:14:08.639Z,12.07
2023-06-19T23:16:38.002Z,12.17
2023-06-19T23:19:06.116Z,12.10
2023-06-19T23:21:34.193Z,12.00
2023-06-19T23:24:03.610Z,12.53
2023-06-19T23:26:31.666Z,12.50
2023-06-19T23:29:00.058Z,13.70
2023-06-19T23:31:28.172Z,12.97
2023-06-19T23:34:00.131Z,12.80
2023-06-19T23:36:28.249Z,12.77
2023-06-19T23:38:56.829Z,13.83
2023-06-19T23:41:26.231Z,13.00
2023-06-19T23:43:54.234Z,12.90
2023-06-19T23:46:22.341Z,13.70
2023-06-19T23:48:52.348Z,13.30
2023-06-19T23:51:20.550Z,12.87
2023-06-19T23:53:48.612Z,13.23
2023-06-19T23:56:16.722Z,13.23
2023-06-19T23:58:46.100Z,14.33
